sensor_id;sensor_type;location;lat;lon;timestamp;temperature;humidity
25550;DHT22;13444;50.562;7.262;2022-12-26T00:01:32;13.20;99.90
25550;DHT22;13444;50.562;7.262;2022-12-26T00:03:57;13.20;99.90
25550;DHT22;13444;50.562;7.262;2022-12-26T00:06:26;13.40;99.90
25550;DHT22;13444;50.562;7.262;2022-12-26T00:08:53;13.50;99.90
25550;DHT22;13444;50.562;7.262;2022-12-26T00:11:20;13.50;99.90
25550;DHT22;13444;50.562;7.262;2022-12-26T00:13:46;13.50;99.90
25550;DHT22;13444;50.562;7.262;2022-12-26T00:16:13;13.50;99.90
25550;DHT22;13444;50.562;7.262;2022-12-26T00:18:39;13.50;99.90
25550;DHT22;13444;50.562;7.262;2022-12-26T00:21:06;13.40;99.90
25550;DHT22;13444;50.562;7.262;2022-12-26T00:23:32;13.50;99.90
25550;DHT22;13444;50.562;7.262;2022-12-26T00:26:03;13.40;99.90
25550;DHT22;13444;50.562;7.262;2022-12-26T00:28:28;13.40;99.90
25550;DHT22;13444;50.562;7.262;2022-12-26T00:30:54;13.40;99.90
25550;DHT22;13444;50.562;7.262;2022-12-26T00:33:19;13.40;99.90
25550;DHT22;13444;50.562;7.262;2022-12-26T00:35:45;13.40;99.90
25550;DHT22;13444;50.562;7.262;2022-12-26T00:38:10;13.50;99.90
25550;DHT22;13444;50.562;7.262;2022-12-26T00:40:36;13.60;99.90
25550;DHT22;13444;50.562;7.262;2022-12-26T00:43:07;13.60;99.90
25550;DHT22;13444;50.562;7.262;2022-12-26T00:45:32;13.60;99.90
25550;DHT22;13444;50.562;7.262;2022-12-26T00:47:58;13.60;99.90
25550;DHT22;13444;50.562;7.262;2022-12-26T00:50:23;13.60;99.90
25550;DHT22;13444;50.562;7.262;2022-12-26T00:52:49;13.60;99.90
25550;DHT22;13444;50.562;7.262;2022-12-26T00:55:14;13.60;99.90
25550;DHT22;13444;50.562;7.262;2022-12-26T00:57:40;13.60;99.90
25550;DHT22;13444;50.562;7.262;2022-12-26T01:00:07;13.60;99.90
25550;DHT22;13444;50.562;7.262;2022-12-26T01:02:32;13.60;99.90
25550;DHT22;13444;50.562;7.262;2022-12-26T01:05:05;13.60;99.90
25550;DHT22;13444;50.562;7.262;2022-12-26T01:07:36;13.60;99.90
25550;DHT22;13444;50.562;7.262;2022-12-26T01:10:03;13.60;99.90
25550;DHT22;13444;50.562;7.262;2022-12-26T01:12:29;13.60;99.90
25550;DHT22;13444;50.562;7.262;2022-12-26T01:14:58;13.60;99.90
25550;DHT22;13444;50.562;7.262;2022-12-26T01:17:26;13.60;99.90
25550;DHT22;13444;50.562;7.262;2022-12-26T01:19:51;13.60;99.90
25550;DHT22;13444;50.562;7.262;2022-12-26T01:22:17;13.50;99.90
25550;DHT22;13444;50.562;7.262;2022-12-26T01:24:42;13.60;99.90
25550;DHT22;13444;50.562;7.262;2022-12-26T01:27:08;13.60;99.90
25550;DHT22;13444;50.562;7.262;2022-12-26T01:29:33;13.50;99.90
25550;DHT22;13444;50.562;7.262;2022-12-26T01:31:59;13.50;99.90
25550;DHT22;13444;50.562;7.262;2022-12-26T01:34:25;13.40;99.90
25550;DHT22;13444;50.562;7.262;2022-12-26T01:36:54;13.40;99.90
25550;DHT22;13444;50.562;7.262;2022-12-26T01:39:21;13.40;99.90
25550;DHT22;13444;50.562;7.262;2022-12-26T01:41:47;13.50;99.90
25550;DHT22;13444;50.562;7.262;2022-12-26T01:47:16;13.60;99.90
25550;DHT22;13444;50.562;7.262;2022-12-26T01:49:43;13.60;99.90
25550;DHT22;13444;50.562;7.262;2022-12-26T01:52:20;13.50;99.90
25550;DHT22;13444;50.562;7.262;2022-12-26T01:54:49;13.50;99.90
25550;DHT22;13444;50.562;7.262;2022-12-26T01:57:19;13.50;99.90
25550;DHT22;13444;50.562;7.262;2022-12-26T01:59:47;13.50;99.90
25550;DHT22;13444;50.562;7.262;2022-12-26T02:02:14;13.50;99.90
25550;DHT22;13444;50.562;7.262;2022-12-26T02:04:46;13.50;99.90
25550;DHT22;13444;50.562;7.262;2022-12-26T02:07:33;13.60;99.90
25550;DHT22;13444;50.562;7.262;2022-12-26T02:09:59;13.60;99.90
25550;DHT22;13444;50.562;7.262;2022-12-26T02:12:29;13.50;99.90
25550;DHT22;13444;50.562;7.262;2022-12-26T02:14:59;13.50;99.90
25550;DHT22;13444;50.562;7.262;2022-12-26T02:17:25;13.50;99.90
25550;DHT22;13444;50.562;7.262;2022-12-26T02:28:23;13.30;99.90
25550;DHT22;13444;50.562;7.262;2022-12-26T02:31:10;13.20;99.90
25550;DHT22;13444;50.562;7.262;2022-12-26T02:34:04;13.30;99.90
25550;DHT22;13444;50.562;7.262;2022-12-26T02:39:42;13.20;99.90
25550;DHT22;13444;50.562;7.262;2022-12-26T02:42:36;13.10;99.90
25550;DHT22;13444;50.562;7.262;2022-12-26T02:45:29;13.20;99.90
25550;DHT22;13444;50.562;7.262;2022-12-26T02:51:27;13.30;99.90
25550;DHT22;13444;50.562;7.262;2022-12-26T02:54:40;13.30;99.90
25550;DHT22;13444;50.562;7.262;2022-12-26T02:57:42;13.30;99.90
25550;DHT22;13444;50.562;7.262;2022-12-26T03:00:31;13.30;99.90
25550;DHT22;13444;50.562;7.262;2022-12-26T03:03:20;13.30;99.90
25550;DHT22;13444;50.562;7.262;2022-12-26T03:06:10;13.30;99.90
25550;DHT22;13444;50.562;7.262;2022-12-26T03:09:11;13.40;99.90
25550;DHT22;13444;50.562;7.262;2022-12-26T03:12:22;13.40;99.90
25550;DHT22;13444;50.562;7.262;2022-12-26T03:15:15;13.40;99.90
25550;DHT22;13444;50.562;7.262;2022-12-26T03:17:45;13.50;99.90
25550;DHT22;13444;50.562;7.262;2022-12-26T03:20:21;13.50;99.90
25550;DHT22;13444;50.562;7.262;2022-12-26T03:22:52;13.50;99.90
25550;DHT22;13444;50.562;7.262;2022-12-26T03:25:41;13.50;99.90
25550;DHT22;13444;50.562;7.262;2022-12-26T03:28:27;13.50;99.90
25550;DHT22;13444;50.562;7.262;2022-12-26T03:30:55;13.40;99.90
25550;DHT22;13444;50.562;7.262;2022-12-26T03:36:06;13.30;99.90
25550;DHT22;13444;50.562;7.262;2022-12-26T03:39:08;13.30;99.90
25550;DHT22;13444;50.562;7.262;2022-12-26T03:41:58;13.20;99.90
25550;DHT22;13444;50.562;7.262;2022-12-26T03:44:56;13.20;99.90
25550;DHT22;13444;50.562;7.262;2022-12-26T03:47:54;13.20;99.90
25550;DHT22;13444;50.562;7.262;2022-12-26T03:50:46;13.20;99.90
25550;DHT22;13444;50.562;7.262;2022-12-26T03:53:36;13.20;99.90
25550;DHT22;13444;50.562;7.262;2022-12-26T03:56:37;13.20;99.90
25550;DHT22;13444;50.562;7.262;2022-12-26T03:59:30;13.10;99.90
25550;DHT22;13444;50.562;7.262;2022-12-26T04:02:18;13.00;99.90
25550;DHT22;13444;50.562;7.262;2022-12-26T04:05:06;13.00;99.90
25550;DHT22;13444;50.562;7.262;2022-12-26T04:07:56;12.80;99.90
25550;DHT22;13444;50.562;7.262;2022-12-26T04:10:47;12.80;99.90
25550;DHT22;13444;50.562;7.262;2022-12-26T04:13:49;12.70;99.90
25550;DHT22;13444;50.562;7.262;2022-12-26T04:19:59;12.60;99.90
25550;DHT22;13444;50.562;7.262;2022-12-26T04:22:52;12.60;99.90
25550;DHT22;13444;50.562;7.262;2022-12-26T04:25:56;12.60;99.90
25550;DHT22;13444;50.562;7.262;2022-12-26T04:28:41;12.60;99.90
25550;DHT22;13444;50.562;7.262;2022-12-26T04:31:29;12.60;99.90
25550;DHT22;13444;50.562;7.262;2022-12-26T04:34:25;12.50;99.90
25550;DHT22;13444;50.562;7.262;2022-12-26T04:37:18;12.50;99.90
25550;DHT22;13444;50.562;7.262;2022-12-26T04:40:07;12.50;99.90
25550;DHT22;13444;50.562;7.262;2022-12-26T04:42:53;12.50;99.90
25550;DHT22;13444;50.562;7.262;2022-12-26T04:45:38;12.50;99.90
25550;DHT22;13444;50.562;7.262;2022-12-26T04:48:03;12.50;99.90
25550;DHT22;13444;50.562;7.262;2022-12-26T04:50:51;12.50;99.90
25550;DHT22;13444;50.562;7.262;2022-12-26T04:53:18;12.50;99.90
25550;DHT22;13444;50.562;7.262;2022-12-26T04:55:44;12.50;99.90
25550;DHT22;13444;50.562;7.262;2022-12-26T04:58:10;12.40;99.90
25550;DHT22;13444;50.562;7.262;2022-12-26T05:00:36;12.50;99.90
25550;DHT22;13444;50.562;7.262;2022-12-26T05:03:01;12.40;99.90
25550;DHT22;13444;50.562;7.262;2022-12-26T05:05:48;12.40;99.90
25550;DHT22;13444;50.562;7.262;2022-12-26T05:08:36;12.40;99.90
25550;DHT22;13444;50.562;7.262;2022-12-26T05:11:21;12.40;99.90
25550;DHT22;13444;50.562;7.262;2022-12-26T05:13:47;12.40;99.90
25550;DHT22;13444;50.562;7.262;2022-12-26T05:16:12;12.40;99.90
25550;DHT22;13444;50.562;7.262;2022-12-26T05:18:57;12.40;99.90
25550;DHT22;13444;50.562;7.262;2022-12-26T05:21:41;12.40;99.90
25550;DHT22;13444;50.562;7.262;2022-12-26T05:24:32;12.40;99.90
25550;DHT22;13444;50.562;7.262;2022-12-26T05:27:17;12.40;99.90
25550;DHT22;13444;50.562;7.262;2022-12-26T05:30:02;12.40;99.90
25550;DHT22;13444;50.562;7.262;2022-12-26T05:32:28;12.40;99.90
25550;DHT22;13444;50.562;7.262;2022-12-26T05:35:12;12.40;99.90
25550;DHT22;13444;50.562;7.262;2022-12-26T05:37:38;12.40;99.90
25550;DHT22;13444;50.562;7.262;2022-12-26T05:40:03;12.40;99.90
25550;DHT22;13444;50.562;7.262;2022-12-26T05:42:29;12.40;99.90
25550;DHT22;13444;50.562;7.262;2022-12-26T05:44:54;12.40;99.90
25550;DHT22;13444;50.562;7.262;2022-12-26T05:47:20;12.40;99.90
25550;DHT22;13444;50.562;7.262;2022-12-26T05:49:45;12.40;99.90
25550;DHT22;13444;50.562;7.262;2022-12-26T05:52:11;12.30;99.90
25550;DHT22;13444;50.562;7.262;2022-12-26T05:54:36;12.40;99.90
25550;DHT22;13444;50.562;7.262;2022-12-26T05:57:02;12.30;99.90
25550;DHT22;13444;50.562;7.262;2022-12-26T05:59:28;12.40;99.90
25550;DHT22;13444;50.562;7.262;2022-12-26T06:01:54;12.40;99.90
25550;DHT22;13444;50.562;7.262;2022-12-26T06:04:19;12.40;99.90
25550;DHT22;13444;50.562;7.262;2022-12-26T06:06:45;12.40;99.90
25550;DHT22;13444;50.562;7.262;2022-12-26T06:09:10;12.30;99.90
25550;DHT22;13444;50.562;7.262;2022-12-26T06:11:36;12.30;99.90
25550;DHT22;13444;50.562;7.262;2022-12-26T06:14:01;12.30;99.90
25550;DHT22;13444;50.562;7.262;2022-12-26T06:16:27;12.20;99.90
25550;DHT22;13444;50.562;7.262;2022-12-26T06:18:54;12.30;99.90
25550;DHT22;13444;50.562;7.262;2022-12-26T06:21:20;12.30;99.90
25550;DHT22;13444;50.562;7.262;2022-12-26T06:23:46;12.30;99.90
25550;DHT22;13444;50.562;7.262;2022-12-26T06:26:12;12.30;99.90
25550;DHT22;13444;50.562;7.262;2022-12-26T06:28:39;12.20;99.90
25550;DHT22;13444;50.562;7.262;2022-12-26T06:31:08;12.20;99.90
25550;DHT22;13444;50.562;7.262;2022-12-26T06:33:34;12.20;99.90
25550;DHT22;13444;50.562;7.262;2022-12-26T06:36:20;12.20;99.90
25550;DHT22;13444;50.562;7.262;2022-12-26T06:38:46;12.30;99.90
25550;DHT22;13444;50.562;7.262;2022-12-26T06:41:13;12.20;99.90
25550;DHT22;13444;50.562;7.262;2022-12-26T06:43:40;12.20;99.90
25550;DHT22;13444;50.562;7.262;2022-12-26T06:46:06;12.30;99.90
25550;DHT22;13444;50.562;7.262;2022-12-26T06:48:33;12.20;99.90
25550;DHT22;13444;50.562;7.262;2022-12-26T06:51:12;12.30;99.90
25550;DHT22;13444;50.562;7.262;2022-12-26T06:53:38;12.30;99.90
25550;DHT22;13444;50.562;7.262;2022-12-26T06:56:08;12.30;99.90
25550;DHT22;13444;50.562;7.262;2022-12-26T06:58:34;12.30;99.90
25550;DHT22;13444;50.562;7.262;2022-12-26T07:01:15;12.40;99.90
25550;DHT22;13444;50.562;7.262;2022-12-26T07:03:42;12.50;99.90
25550;DHT22;13444;50.562;7.262;2022-12-26T07:06:12;12.50;99.90
25550;DHT22;13444;50.562;7.262;2022-12-26T07:08:38;12.60;99.90
25550;DHT22;13444;50.562;7.262;2022-12-26T07:11:03;12.70;99.90
25550;DHT22;13444;50.562;7.262;2022-12-26T07:13:29;12.70;99.90
25550;DHT22;13444;50.562;7.262;2022-12-26T07:15:58;12.80;99.90
25550;DHT22;13444;50.562;7.262;2022-12-26T07:18:23;12.70;99.90
25550;DHT22;13444;50.562;7.262;2022-12-26T07:20:49;12.70;99.90
25550;DHT22;13444;50.562;7.262;2022-12-26T07:23:14;12.60;99.90
25550;DHT22;13444;50.562;7.262;2022-12-26T07:25:40;12.60;99.90
25550;DHT22;13444;50.562;7.262;2022-12-26T07:28:05;12.60;99.90
25550;DHT22;13444;50.562;7.262;2022-12-26T07:30:31;12.50;99.90
25550;DHT22;13444;50.562;7.262;2022-12-26T07:32:56;12.60;99.90
25550;DHT22;13444;50.562;7.262;2022-12-26T07:35:22;12.60;99.90
25550;DHT22;13444;50.562;7.262;2022-12-26T07:37:47;12.60;99.90
25550;DHT22;13444;50.562;7.262;2022-12-26T07:40:13;12.80;99.90
25550;DHT22;13444;50.562;7.262;2022-12-26T07:42:38;12.80;99.90
25550;DHT22;13444;50.562;7.262;2022-12-26T07:45:04;12.80;99.90
25550;DHT22;13444;50.562;7.262;2022-12-26T07:47:30;12.80;99.90
25550;DHT22;13444;50.562;7.262;2022-12-26T07:49:55;12.80;99.90
25550;DHT22;13444;50.562;7.262;2022-12-26T07:52:21;12.80;99.90
25550;DHT22;13444;50.562;7.262;2022-12-26T07:54:47;12.70;99.90
25550;DHT22;13444;50.562;7.262;2022-12-26T07:57:12;12.70;99.90
25550;DHT22;13444;50.562;7.262;2022-12-26T07:59:38;12.70;99.90
25550;DHT22;13444;50.562;7.262;2022-12-26T08:02:03;12.70;99.90
25550;DHT22;13444;50.562;7.262;2022-12-26T08:04:30;12.70;99.90
25550;DHT22;13444;50.562;7.262;2022-12-26T08:06:56;12.70;99.90
25550;DHT22;13444;50.562;7.262;2022-12-26T08:09:21;12.70;99.90
25550;DHT22;13444;50.562;7.262;2022-12-26T08:11:47;12.70;99.90
25550;DHT22;13444;50.562;7.262;2022-12-26T08:14:13;12.60;99.90
25550;DHT22;13444;50.562;7.262;2022-12-26T08:16:41;12.60;99.90
25550;DHT22;13444;50.562;7.262;2022-12-26T08:19:06;12.60;99.90
25550;DHT22;13444;50.562;7.262;2022-12-26T08:21:32;12.60;99.90
25550;DHT22;13444;50.562;7.262;2022-12-26T08:23:57;12.60;99.90
25550;DHT22;13444;50.562;7.262;2022-12-26T08:26:23;12.60;99.90
25550;DHT22;13444;50.562;7.262;2022-12-26T08:28:50;12.60;99.90
25550;DHT22;13444;50.562;7.262;2022-12-26T08:31:17;12.60;99.90
25550;DHT22;13444;50.562;7.262;2022-12-26T08:33:43;12.60;99.90
25550;DHT22;13444;50.562;7.262;2022-12-26T08:36:10;12.60;99.90
25550;DHT22;13444;50.562;7.262;2022-12-26T08:38:36;12.60;99.90
25550;DHT22;13444;50.562;7.262;2022-12-26T08:41:02;12.60;99.90
25550;DHT22;13444;50.562;7.262;2022-12-26T08:43:28;12.60;99.90
25550;DHT22;13444;50.562;7.262;2022-12-26T08:46:01;12.60;99.90
25550;DHT22;13444;50.562;7.262;2022-12-26T08:48:28;12.60;99.90
25550;DHT22;13444;50.562;7.262;2022-12-26T08:51:03;12.60;99.90
25550;DHT22;13444;50.562;7.262;2022-12-26T08:53:30;12.60;99.90
25550;DHT22;13444;50.562;7.262;2022-12-26T08:55:57;12.60;99.90
25550;DHT22;13444;50.562;7.262;2022-12-26T08:58:23;12.60;99.90
25550;DHT22;13444;50.562;7.262;2022-12-26T09:00:49;12.60;99.90
25550;DHT22;13444;50.562;7.262;2022-12-26T09:03:15;12.70;99.90
25550;DHT22;13444;50.562;7.262;2022-12-26T09:05:41;12.70;99.90
25550;DHT22;13444;50.562;7.262;2022-12-26T09:08:06;12.60;99.90
25550;DHT22;13444;50.562;7.262;2022-12-26T09:10:33;12.70;99.90
25550;DHT22;13444;50.562;7.262;2022-12-26T09:12:58;12.70;99.90
25550;DHT22;13444;50.562;7.262;2022-12-26T09:15:24;12.70;99.90
25550;DHT22;13444;50.562;7.262;2022-12-26T09:17:49;12.70;99.90
25550;DHT22;13444;50.562;7.262;2022-12-26T09:20:15;12.70;99.90
25550;DHT22;13444;50.562;7.262;2022-12-26T09:22:41;12.70;99.90
25550;DHT22;13444;50.562;7.262;2022-12-26T09:25:21;12.70;99.90
25550;DHT22;13444;50.562;7.262;2022-12-26T09:27:47;12.60;99.90
25550;DHT22;13444;50.562;7.262;2022-12-26T09:30:13;12.70;99.90
25550;DHT22;13444;50.562;7.262;2022-12-26T09:32:39;12.70;99.90
25550;DHT22;13444;50.562;7.262;2022-12-26T09:35:05;12.70;99.90
25550;DHT22;13444;50.562;7.262;2022-12-26T09:37:31;12.80;99.90
25550;DHT22;13444;50.562;7.262;2022-12-26T09:39:56;12.90;99.90
25550;DHT22;13444;50.562;7.262;2022-12-26T09:46:08;12.90;99.90
25550;DHT22;13444;50.562;7.262;2022-12-26T09:48:56;12.90;99.90
25550;DHT22;13444;50.562;7.262;2022-12-26T09:51:24;13.00;99.90
25550;DHT22;13444;50.562;7.262;2022-12-26T09:53:50;13.00;99.90
25550;DHT22;13444;50.562;7.262;2022-12-26T09:56:18;13.00;99.90
25550;DHT22;13444;50.562;7.262;2022-12-26T09:58:48;13.10;99.90
25550;DHT22;13444;50.562;7.262;2022-12-26T10:01:19;13.10;99.90
25550;DHT22;13444;50.562;7.262;2022-12-26T10:03:48;13.10;99.90
25550;DHT22;13444;50.562;7.262;2022-12-26T10:06:19;13.10;99.90
25550;DHT22;13444;50.562;7.262;2022-12-26T10:09:03;13.10;99.90
25550;DHT22;13444;50.562;7.262;2022-12-26T10:11:37;13.20;99.90
25550;DHT22;13444;50.562;7.262;2022-12-26T10:14:26;13.20;99.90
25550;DHT22;13444;50.562;7.262;2022-12-26T10:17:34;13.30;99.90
25550;DHT22;13444;50.562;7.262;2022-12-26T10:23:21;13.50;99.90
25550;DHT22;13444;50.562;7.262;2022-12-26T10:25:55;13.60;99.90
25550;DHT22;13444;50.562;7.262;2022-12-26T10:31:35;13.70;99.90
25550;DHT22;13444;50.562;7.262;2022-12-26T10:36:58;13.80;99.90
25550;DHT22;13444;50.562;7.262;2022-12-26T10:39:42;13.80;99.90
25550;DHT22;13444;50.562;7.262;2022-12-26T10:44:48;13.70;99.90
25550;DHT22;13444;50.562;7.262;2022-12-26T10:47:29;13.70;99.90
25550;DHT22;13444;50.562;7.262;2022-12-26T10:49:57;13.70;99.90
25550;DHT22;13444;50.562;7.262;2022-12-26T10:52:28;13.60;99.90
25550;DHT22;13444;50.562;7.262;2022-12-26T10:54:57;13.70;99.90
25550;DHT22;13444;50.562;7.262;2022-12-26T10:57:26;13.70;99.90
25550;DHT22;13444;50.562;7.262;2022-12-26T10:59:54;13.80;99.90
25550;DHT22;13444;50.562;7.262;2022-12-26T11:02:28;13.80;99.90
25550;DHT22;13444;50.562;7.262;2022-12-26T11:05:12;13.80;99.90
25550;DHT22;13444;50.562;7.262;2022-12-26T11:07:49;13.90;99.90
25550;DHT22;13444;50.562;7.262;2022-12-26T11:10:21;13.90;99.90
25550;DHT22;13444;50.562;7.262;2022-12-26T11:12:51;14.00;99.90
25550;DHT22;13444;50.562;7.262;2022-12-26T11:15:27;14.00;99.90
25550;DHT22;13444;50.562;7.262;2022-12-26T11:18:05;14.00;99.90
25550;DHT22;13444;50.562;7.262;2022-12-26T11:20:31;14.10;99.90
25550;DHT22;13444;50.562;7.262;2022-12-26T11:23:17;14.10;99.90
25550;DHT22;13444;50.562;7.262;2022-12-26T11:25:48;14.20;99.90
25550;DHT22;13444;50.562;7.262;2022-12-26T11:28:29;14.20;99.90
25550;DHT22;13444;50.562;7.262;2022-12-26T11:30:55;14.20;99.90
25550;DHT22;13444;50.562;7.262;2022-12-26T11:33:27;14.10;99.90
25550;DHT22;13444;50.562;7.262;2022-12-26T11:44:25;14.10;99.90
25550;DHT22;13444;50.562;7.262;2022-12-26T11:47:13;14.10;99.90
25550;DHT22;13444;50.562;7.262;2022-12-26T11:49:59;14.10;99.90
25550;DHT22;13444;50.562;7.262;2022-12-26T11:52:38;14.10;99.90
25550;DHT22;13444;50.562;7.262;2022-12-26T11:58:01;14.00;99.90
25550;DHT22;13444;50.562;7.262;2022-12-26T12:00:32;14.10;99.90
25550;DHT22;13444;50.562;7.262;2022-12-26T12:02:58;14.10;99.90
25550;DHT22;13444;50.562;7.262;2022-12-26T12:08:20;14.10;99.90
25550;DHT22;13444;50.562;7.262;2022-12-26T12:11:03;14.10;99.90
25550;DHT22;13444;50.562;7.262;2022-12-26T12:13:40;14.00;99.90
25550;DHT22;13444;50.562;7.262;2022-12-26T12:16:36;13.90;99.90
25550;DHT22;13444;50.562;7.262;2022-12-26T12:19:25;13.90;99.90
25550;DHT22;13444;50.562;7.262;2022-12-26T12:22:09;13.90;99.90
25550;DHT22;13444;50.562;7.262;2022-12-26T12:24:54;13.80;99.90
25550;DHT22;13444;50.562;7.262;2022-12-26T12:27:35;13.80;99.90
25550;DHT22;13444;50.562;7.262;2022-12-26T12:36:03;13.60;99.90
25550;DHT22;13444;50.562;7.262;2022-12-26T12:44:13;12.80;99.90
25550;DHT22;13444;50.562;7.262;2022-12-26T12:52:18;12.30;99.90
25550;DHT22;13444;50.562;7.262;2022-12-26T13:00:37;12.10;99.90
25550;DHT22;13444;50.562;7.262;2022-12-26T13:03:12;12.00;99.90
25550;DHT22;13444;50.562;7.262;2022-12-26T13:06:07;12.00;99.90
25550;DHT22;13444;50.562;7.262;2022-12-26T13:08:59;12.00;99.90
25550;DHT22;13444;50.562;7.262;2022-12-26T13:11:45;12.00;99.90
25550;DHT22;13444;50.562;7.262;2022-12-26T13:14:20;12.10;99.90
25550;DHT22;13444;50.562;7.262;2022-12-26T13:16:54;12.10;99.90
25550;DHT22;13444;50.562;7.262;2022-12-26T13:19:26;12.20;99.90
25550;DHT22;13444;50.562;7.262;2022-12-26T13:21:57;12.20;99.90
25550;DHT22;13444;50.562;7.262;2022-12-26T13:24:44;12.30;99.90
25550;DHT22;13444;50.562;7.262;2022-12-26T13:27:24;12.30;99.90
25550;DHT22;13444;50.562;7.262;2022-12-26T13:29:51;12.30;99.90
25550;DHT22;13444;50.562;7.262;2022-12-26T13:32:29;12.30;99.90
25550;DHT22;13444;50.562;7.262;2022-12-26T13:34:58;12.30;99.90
25550;DHT22;13444;50.562;7.262;2022-12-26T13:40:18;12.30;99.90
25550;DHT22;13444;50.562;7.262;2022-12-26T13:43:06;12.30;99.90
25550;DHT22;13444;50.562;7.262;2022-12-26T13:45:54;12.20;99.90
25550;DHT22;13444;50.562;7.262;2022-12-26T13:50:59;12.10;99.90
25550;DHT22;13444;50.562;7.262;2022-12-26T13:53:32;12.10;99.90
25550;DHT22;13444;50.562;7.262;2022-12-26T13:56:03;12.00;99.90
25550;DHT22;13444;50.562;7.262;2022-12-26T13:58:34;12.00;99.90
25550;DHT22;13444;50.562;7.262;2022-12-26T14:07:15;11.90;99.90
25550;DHT22;13444;50.562;7.262;2022-12-26T14:10:10;11.90;99.90
25550;DHT22;13444;50.562;7.262;2022-12-26T14:18:35;11.90;99.90
25550;DHT22;13444;50.562;7.262;2022-12-26T14:21:36;11.80;99.90
25550;DHT22;13444;50.562;7.262;2022-12-26T14:24:24;11.80;99.90
25550;DHT22;13444;50.562;7.262;2022-12-26T14:27:10;11.80;99.90
25550;DHT22;13444;50.562;7.262;2022-12-26T14:29:50;11.80;99.90
25550;DHT22;13444;50.562;7.262;2022-12-26T14:38:28;11.60;99.90
25550;DHT22;13444;50.562;7.262;2022-12-26T14:40:59;11.60;99.90
25550;DHT22;13444;50.562;7.262;2022-12-26T14:43:39;11.60;99.90
25550;DHT22;13444;50.562;7.262;2022-12-26T14:48:59;11.40;99.90
25550;DHT22;13444;50.562;7.262;2022-12-26T14:51:41;11.30;99.90
25550;DHT22;13444;50.562;7.262;2022-12-26T14:54:34;11.10;99.90
25550;DHT22;13444;50.562;7.262;2022-12-26T14:57:00;11.10;99.90
25550;DHT22;13444;50.562;7.262;2022-12-26T14:59:30;11.00;99.90
25550;DHT22;13444;50.562;7.262;2022-12-26T15:02:28;10.90;99.90
25550;DHT22;13444;50.562;7.262;2022-12-26T15:10:48;10.60;99.90
25550;DHT22;13444;50.562;7.262;2022-12-26T15:19:25;10.30;99.90
25550;DHT22;13444;50.562;7.262;2022-12-26T15:22:15;10.20;99.90
25550;DHT22;13444;50.562;7.262;2022-12-26T15:24:54;10.20;99.90
25550;DHT22;13444;50.562;7.262;2022-12-26T15:33:13;10.10;99.90
25550;DHT22;13444;50.562;7.262;2022-12-26T15:36:42;10.10;99.90
25550;DHT22;13444;50.562;7.262;2022-12-26T15:48:01;10.10;99.90
25550;DHT22;13444;50.562;7.262;2022-12-26T15:53:17;10.10;99.90
25550;DHT22;13444;50.562;7.262;2022-12-26T15:59:06;10.10;99.90
25550;DHT22;13444;50.562;7.262;2022-12-26T16:01:40;10.10;99.90
25550;DHT22;13444;50.562;7.262;2022-12-26T16:04:22;10.10;99.90
25550;DHT22;13444;50.562;7.262;2022-12-26T16:14:44;10.00;99.90
25550;DHT22;13444;50.562;7.262;2022-12-26T16:17:18;10.00;99.90
25550;DHT22;13444;50.562;7.262;2022-12-26T16:19:46;10.00;99.90
25550;DHT22;13444;50.562;7.262;2022-12-26T16:22:34;9.90;99.90
25550;DHT22;13444;50.562;7.262;2022-12-26T16:25:23;9.80;99.90
25550;DHT22;13444;50.562;7.262;2022-12-26T16:27:52;9.80;99.90
25550;DHT22;13444;50.562;7.262;2022-12-26T16:30:21;9.80;99.90
25550;DHT22;13444;50.562;7.262;2022-12-26T16:32:47;9.70;99.90
25550;DHT22;13444;50.562;7.262;2022-12-26T16:35:23;9.70;99.90
25550;DHT22;13444;50.562;7.262;2022-12-26T16:37:51;9.60;99.90
25550;DHT22;13444;50.562;7.262;2022-12-26T16:40:23;9.50;99.90
25550;DHT22;13444;50.562;7.262;2022-12-26T16:45:31;9.40;99.90
25550;DHT22;13444;50.562;7.262;2022-12-26T16:47:57;9.30;99.90
25550;DHT22;13444;50.562;7.262;2022-12-26T16:50:26;9.20;99.90
25550;DHT22;13444;50.562;7.262;2022-12-26T16:53:07;9.20;99.90
25550;DHT22;13444;50.562;7.262;2022-12-26T16:55:37;9.10;99.90
25550;DHT22;13444;50.562;7.262;2022-12-26T16:58:21;9.10;99.90
25550;DHT22;13444;50.562;7.262;2022-12-26T17:01:13;9.10;99.90
25550;DHT22;13444;50.562;7.262;2022-12-26T17:06:17;9.00;99.90
25550;DHT22;13444;50.562;7.262;2022-12-26T17:08:48;8.90;99.90
25550;DHT22;13444;50.562;7.262;2022-12-26T17:11:14;8.90;99.90
25550;DHT22;13444;50.562;7.262;2022-12-26T17:13:48;8.90;99.90
25550;DHT22;13444;50.562;7.262;2022-12-26T17:16:15;8.80;99.90
25550;DHT22;13444;50.562;7.262;2022-12-26T17:18:49;8.70;99.90
25550;DHT22;13444;50.562;7.262;2022-12-26T17:21:28;8.70;99.90
25550;DHT22;13444;50.562;7.262;2022-12-26T17:24:23;8.80;99.90
25550;DHT22;13444;50.562;7.262;2022-12-26T17:26:52;8.70;99.90
25550;DHT22;13444;50.562;7.262;2022-12-26T17:29:36;8.70;99.90
25550;DHT22;13444;50.562;7.262;2022-12-26T17:32:06;8.70;99.90
25550;DHT22;13444;50.562;7.262;2022-12-26T17:34:36;8.60;99.90
25550;DHT22;13444;50.562;7.262;2022-12-26T17:37:03;8.60;99.90
25550;DHT22;13444;50.562;7.262;2022-12-26T17:39:29;8.60;99.90
25550;DHT22;13444;50.562;7.262;2022-12-26T17:41:59;8.60;99.90
25550;DHT22;13444;50.562;7.262;2022-12-26T17:44:42;8.50;99.90
25550;DHT22;13444;50.562;7.262;2022-12-26T17:49:43;8.40;99.90
25550;DHT22;13444;50.562;7.262;2022-12-26T17:52:11;8.40;99.90
25550;DHT22;13444;50.562;7.262;2022-12-26T17:54:37;8.40;99.90
25550;DHT22;13444;50.562;7.262;2022-12-26T17:57:03;8.30;99.90
25550;DHT22;13444;50.562;7.262;2022-12-26T17:59:28;8.30;99.90
25550;DHT22;13444;50.562;7.262;2022-12-26T18:01:53;8.20;99.90
25550;DHT22;13444;50.562;7.262;2022-12-26T18:04:19;8.20;99.90
25550;DHT22;13444;50.562;7.262;2022-12-26T18:06:45;8.10;99.90
25550;DHT22;13444;50.562;7.262;2022-12-26T18:09:25;8.10;99.90
25550;DHT22;13444;50.562;7.262;2022-12-26T18:11:51;8.10;99.90
25550;DHT22;13444;50.562;7.262;2022-12-26T18:14:17;8.10;99.90
25550;DHT22;13444;50.562;7.262;2022-12-26T18:16:43;8.10;99.90
25550;DHT22;13444;50.562;7.262;2022-12-26T18:19:16;8.10;99.90
25550;DHT22;13444;50.562;7.262;2022-12-26T18:21:42;8.10;99.90
25550;DHT22;13444;50.562;7.262;2022-12-26T18:24:08;8.10;99.90
25550;DHT22;13444;50.562;7.262;2022-12-26T18:26:34;8.10;99.90
25550;DHT22;13444;50.562;7.262;2022-12-26T18:29:01;8.00;99.90
25550;DHT22;13444;50.562;7.262;2022-12-26T18:31:27;8.00;99.90
25550;DHT22;13444;50.562;7.262;2022-12-26T18:33:53;8.00;99.90
25550;DHT22;13444;50.562;7.262;2022-12-26T18:36:20;8.00;99.90
25550;DHT22;13444;50.562;7.262;2022-12-26T18:38:47;8.00;99.90
25550;DHT22;13444;50.562;7.262;2022-12-26T18:41:18;7.90;99.90
25550;DHT22;13444;50.562;7.262;2022-12-26T18:43:44;7.90;99.90